createdAt,value
2022-09-10T00:02:19.502Z,97948.06
2022-09-10T00:04:50.506Z,97949.19
2022-09-10T00:07:23.053Z,97944.47
2022-09-10T00:09:53.186Z,97940.78
2022-09-10T00:12:23.123Z,97927.41
2022-09-10T00:14:54.461Z,97931.59
2022-09-10T00:17:24.544Z,97936.50
2022-09-10T00:19:55.166Z,97946.34
2022-09-10T00:22:27.921Z,97940.78
2022-09-10T00:24:58.339Z,97937.66
2022-09-10T00:27:28.397Z,97937.66
2022-09-10T00:30:00.450Z,97930.97
2022-09-10T00:32:30.398Z,97945.63
2022-09-10T00:35:01.769Z,97930.41
2022-09-10T00:37:34.624Z,97937.50
2022-09-10T00:40:05.390Z,97938.09
2022-09-10T00:42:35.755Z,97931.38
2022-09-10T00:45:08.468Z,97929.19
2022-09-10T00:47:44.981Z,97930.97
2022-09-10T00:50:24.904Z,97926.25
2022-09-10T00:53:06.074Z,97926.63
2022-09-10T00:55:38.449Z,97933.00
2022-09-10T00:58:14.563Z,97931.81
2022-09-10T01:00:45.054Z,97928.69
2022-09-10T01:03:22.447Z,97912.13
2022-09-10T01:05:55.286Z,97917.16
2022-09-10T01:08:29.128Z,97912.81
2022-09-10T01:11:19.854Z,97910.19
2022-09-10T01:14:20.334Z,97909.97
2022-09-10T01:17:06.061Z,97904.06
2022-09-10T01:20:22.067Z,97904.50
2022-09-10T01:23:37.790Z,97906.47
2022-09-10T01:26:27.985Z,97902.41
2022-09-10T01:29:09.446Z,97898.84
2022-09-10T01:31:53.164Z,97901.66
2022-09-10T01:34:32.821Z,97908.03
2022-09-10T01:37:10.833Z,97899.94
2022-09-10T01:39:43.874Z,97904.63
2022-09-10T01:42:15.363Z,97906.47
2022-09-10T01:44:51.539Z,97909.03
2022-09-10T01:47:57.385Z,97914.38
2022-09-10T01:50:42.873Z,97922.06
2022-09-10T01:53:42.391Z,97913.31
2022-09-10T01:56:30.350Z,97911.88
2022-09-10T01:59:12.349Z,97913.44
2022-09-10T02:01:59.445Z,97923.28
2022-09-10T02:04:31.405Z,97915.59
2022-09-10T02:07:04.542Z,97920.00
2022-09-10T02:09:35.739Z,97917.59
2022-09-10T02:12:08.049Z,97913.44
2022-09-10T02:14:52.007Z,97919.81
2022-09-10T02:17:33.789Z,97913.25
2022-09-10T02:20:05.469Z,97914.44
2022-09-10T02:22:41.646Z,97906.13
2022-09-10T02:25:13.331Z,97907.25
2022-09-10T02:27:43.599Z,97914.78
2022-09-10T02:30:16.153Z,97925.63
2022-09-10T02:32:48.829Z,97931.59
2022-09-10T02:35:19.313Z,97922.38
2022-09-10T02:37:50.925Z,97919.72
2022-09-10T02:40:21.131Z,97927.97
2022-09-10T02:42:51.434Z,97923.50
2022-09-10T02:45:33.992Z,97924.69
2022-09-10T02:48:06.866Z,97920.34
2022-09-10T02:50:36.916Z,97918.78
2022-09-10T02:53:08.364Z,97911.25
2022-09-10T02:55:38.328Z,97911.16
2022-09-10T02:58:08.273Z,97912.19
2022-09-10T03:00:38.488Z,97910.41
2022-09-10T03:03:12.192Z,97904.94
2022-09-10T03:05:42.515Z,97902.22
2022-09-10T03:08:13.196Z,97903.44
2022-09-10T03:10:46.639Z,97907.34
2022-09-10T03:13:16.682Z,97907.34
2022-09-10T03:15:47.311Z,97905.75
2022-09-10T03:18:19.881Z,97912.63
2022-09-10T03:20:49.818Z,97906.13
2022-09-10T03:23:20.460Z,97908.31
2022-09-10T03:25:50.595Z,97906.75
2022-09-10T03:28:26.477Z,97902.66
2022-09-10T03:30:56.869Z,97905.84
2022-09-10T03:33:29.968Z,97899.94
2022-09-10T03:36:00.545Z,97893.03
2022-09-10T03:38:32.696Z,97897.97
2022-09-10T03:41:04.875Z,97906.75
2022-09-10T03:43:35.228Z,97902.22
2022-09-10T03:46:12.052Z,97900.88
2022-09-10T03:48:47.996Z,97892.41
2022-09-10T03:51:23.266Z,97899.50
2022-09-10T03:53:53.255Z,97884.94
2022-09-10T03:56:24.745Z,97894.81
2022-09-10T03:58:54.957Z,97896.47
2022-09-10T04:01:24.996Z,97897.81
2022-09-10T04:04:00.534Z,97895.25
2022-09-10T04:06:32.748Z,97899.16
2022-09-10T04:09:02.820Z,97900.56
2022-09-10T04:11:33.756Z,97889.28
2022-09-10T04:14:04.028Z,97886.91
2022-09-10T04:16:34.263Z,97897.28
2022-09-10T04:19:06.895Z,97900.09
2022-09-10T04:21:38.348Z,97894.59
2022-09-10T04:24:10.012Z,97899.66
2022-09-10T04:26:39.934Z,97896.66
2022-09-10T04:29:10.275Z,97892.66
2022-09-10T04:31:42.174Z,97894.09
2022-09-10T04:34:18.620Z,97899.09
2022-09-10T04:36:49.766Z,97894.38
2022-09-10T04:39:20.931Z,97894.81
2022-09-10T04:41:52.592Z,97898.78
2022-09-10T04:44:22.576Z,97902.16
2022-09-10T04:46:52.906Z,97906.28
2022-09-10T04:49:25.656Z,97897.38
2022-09-10T04:51:56.382Z,97913.31
2022-09-10T04:54:27.878Z,97918.44
2022-09-10T04:56:58.009Z,97918.44
2022-09-10T04:59:28.956Z,97915.31
2022-09-10T05:01:59.868Z,97915.31
2022-09-10T05:04:33.208Z,97916.50
2022-09-10T05:07:03.329Z,97932.81
2022-09-10T05:09:33.942Z,97927.50
2022-09-10T05:12:07.674Z,97922.38
2022-09-10T05:14:38.088Z,97924.69
2022-09-10T05:17:08.546Z,97926.97
2022-09-10T05:19:41.202Z,97922.50
2022-09-10T05:22:12.484Z,97920.28
2022-09-10T05:24:44.190Z,97917.78
2022-09-10T05:27:14.205Z,97927.84
2022-09-10T05:29:45.125Z,97918.72
2022-09-10T05:32:15.354Z,97923.00
2022-09-10T05:34:48.687Z,97921.91
2022-09-10T05:37:20.009Z,97927.25
2022-09-10T05:39:50.094Z,97936.31
2022-09-10T05:42:22.016Z,97924.75
2022-09-10T05:44:52.210Z,97919.41
2022-09-10T05:47:22.209Z,97928.69
2022-09-10T05:49:55.245Z,97933.84
2022-09-10T05:52:26.334Z,97935.66
2022-09-10T05:54:58.876Z,97931.25
2022-09-10T05:57:29.398Z,97934.09
2022-09-10T06:00:00.015Z,97929.34
2022-09-10T06:02:30.408Z,97924.50
2022-09-10T06:05:03.770Z,97923.41
2022-09-10T06:07:35.717Z,97929.63
2022-09-10T06:10:05.824Z,97931.41
2022-09-10T06:12:42.938Z,97928.22
2022-09-10T06:15:13.772Z,97936.91
2022-09-10T06:17:44.321Z,97939.22
2022-09-10T06:20:20.271Z,97945.44
2022-09-10T06:22:52.103Z,97945.59
2022-09-10T06:25:22.184Z,97948.59
2022-09-10T06:27:52.150Z,97948.44
2022-09-10T06:30:23.272Z,97943.97
2022-09-10T06:32:53.531Z,97947.13
2022-09-10T06:35:27.234Z,97951.41
2022-09-10T06:38:00.704Z,97957.66
2022-09-10T06:40:30.969Z,97951.38
2022-09-10T06:43:04.833Z,97950.34
2022-09-10T06:46:00.545Z,97956.06
2022-09-10T06:48:49.597Z,97965.56
2022-09-10T06:51:25.200Z,97955.63
2022-09-10T06:53:55.539Z,97958.00
2022-09-10T06:56:26.426Z,97957.75
2022-09-10T06:59:02.135Z,97967.72
2022-09-10T07:01:38.457Z,97964.94
2022-09-10T07:04:09.272Z,97975.25
2022-09-10T07:06:42.986Z,97976.72
2022-09-10T07:09:16.773Z,97976.56
2022-09-10T07:12:09.492Z,97970.06
2022-09-10T07:14:41.876Z,97977.44
2022-09-10T07:17:13.802Z,97982.06
2022-09-10T07:19:43.700Z,97984.34
2022-09-10T07:22:31.180Z,97982.91
2022-09-10T07:25:01.500Z,97987.06
2022-09-10T07:27:50.885Z,98000.66
2022-09-10T07:30:22.371Z,97992.41
2022-09-10T07:32:54.089Z,98003.44
2022-09-10T07:35:28.583Z,98001.06
2022-09-10T07:38:01.421Z,98009.88
2022-09-10T07:40:31.574Z,98013.25
2022-09-10T07:43:01.897Z,98016.91
2022-09-10T07:45:31.931Z,98021.09
2022-09-10T07:48:05.430Z,98020.00
2022-09-10T07:50:39.766Z,98028.16
2022-09-10T07:53:12.628Z,98026.00
2022-09-10T07:55:42.955Z,98037.56
2022-09-10T07:58:13.017Z,98033.25
2022-09-10T08:00:47.125Z,98031.09
2022-09-10T08:03:18.520Z,98033.94
2022-09-10T08:05:49.427Z,98037.47
2022-09-10T08:08:22.779Z,98037.94
2022-09-10T08:10:54.137Z,98044.53
2022-09-10T08:13:25.234Z,98046.38
2022-09-10T08:15:57.885Z,98036.72
2022-09-10T08:18:28.198Z,98040.41
2022-09-10T08:21:00.175Z,98045.31
2022-09-10T08:23:33.794Z,98050.66
2022-09-10T08:26:06.486Z,98046.06
2022-09-10T08:28:37.691Z,98050.84
2022-09-10T08:31:12.441Z,98050.25
2022-09-10T08:33:52.245Z,98041.84
2022-09-10T08:36:24.470Z,98049.69
2022-09-10T08:39:02.158Z,98058.53
2022-09-10T08:41:49.656Z,98060.16
2022-09-10T08:44:37.396Z,98054.91
2022-09-10T08:47:25.994Z,98058.88
2022-09-10T08:50:09.151Z,98061.53
2022-09-10T08:52:46.565Z,98062.88
2022-09-10T08:55:33.908Z,98057.66
2022-09-10T08:58:19.144Z,98061.47
2022-09-10T09:00:58.485Z,98054.44
2022-09-10T09:03:37.552Z,98054.81
2022-09-10T09:06:14.886Z,98044.38
2022-09-10T09:08:51.949Z,98056.91
2022-09-10T09:11:47.847Z,98054.00
2022-09-10T09:14:38.086Z,98049.38
2022-09-10T09:17:54.958Z,98042.75
2022-09-10T09:20:46.612Z,98045.91
2022-09-10T09:23:26.332Z,98043.81
2022-09-10T09:26:05.047Z,98045.63
2022-09-10T09:28:48.627Z,98043.16
2022-09-10T09:31:26.722Z,98040.03
2022-09-10T09:34:06.959Z,98042.09
2022-09-10T09:36:46.076Z,98037.19
2022-09-10T09:39:26.503Z,98047.81
2022-09-10T09:42:08.002Z,98043.13
2022-09-10T09:44:50.475Z,98034.34
2022-09-10T09:47:23.214Z,98032.13
2022-09-10T09:49:54.083Z,98027.28
2022-09-10T09:52:27.079Z,98036.41
2022-09-10T09:55:15.473Z,98045.72
2022-09-10T09:57:47.228Z,98032.22
2022-09-10T10:00:40.886Z,98036.91
2022-09-10T10:03:20.978Z,98043.63
2022-09-10T10:05:51.681Z,98041.66
2022-09-10T10:08:34.323Z,98033.16
2022-09-10T10:11:04.421Z,98044.69
2022-09-10T10:13:41.699Z,98043.16
2022-09-10T10:16:26.864Z,98032.78
2022-09-10T10:18:56.988Z,98032.75
2022-09-10T10:21:34.757Z,98034.34
2022-09-10T10:24:06.302Z,98025.94
2022-09-10T10:26:38.420Z,98029.09
2022-09-10T10:29:19.816Z,98031.16
2022-09-10T10:31:54.212Z,98024.09
2022-09-10T10:34:52.999Z,98022.38
2022-09-10T10:37:38.261Z,98016.13
2022-09-10T10:40:27.264Z,98012.72
2022-09-10T10:43:14.212Z,98019.50
2022-09-10T10:45:59.317Z,98014.88
2022-09-10T10:48:50.937Z,98005.75
2022-09-10T10:51:37.907Z,98010.47
2022-09-10T10:54:32.396Z,98002.50
2022-09-10T10:57:22.814Z,98010.31
2022-09-10T11:00:01.405Z,98000.34
2022-09-10T11:02:45.183Z,97990.94
2022-09-10T11:05:35.281Z,98000.75
2022-09-10T11:08:14.300Z,98001.63
2022-09-10T11:10:50.500Z,97994.06
2022-09-10T11:13:28.612Z,97992.84
2022-09-10T11:16:09.670Z,97995.88
2022-09-10T11:18:49.634Z,97989.97
2022-09-10T11:21:30.230Z,97988.94
2022-09-10T11:24:06.365Z,97987.88
2022-09-10T11:26:43.145Z,97992.63
2022-09-10T11:29:35.384Z,97990.25
2022-09-10T11:32:15.760Z,97990.41
2022-09-10T11:34:59.707Z,97982.16
2022-09-10T11:37:52.123Z,97985.38
2022-09-10T11:40:33.593Z,97970.72
2022-09-10T11:43:10.580Z,97980.59
2022-09-10T11:45:52.703Z,97977.31
2022-09-10T11:48:30.319Z,97970.63
2022-09-10T11:51:05.530Z,97966.63
2022-09-10T11:53:40.310Z,97973.69
2022-09-10T11:56:59.739Z,97964.19
2022-09-10T11:59:56.956Z,97964.66
2022-09-10T12:03:02.751Z,97964.00
2022-09-10T12:05:43.793Z,97965.09
2022-09-10T12:08:28.581Z,97963.97
2022-09-10T12:11:19.006Z,97957.56
2022-09-10T12:13:51.114Z,97972.81
2022-09-10T12:16:36.531Z,97972.69
2022-09-10T12:19:17.760Z,97963.16
2022-09-10T12:21:54.432Z,97969.28
2022-09-10T12:24:33.731Z,97964.16
2022-09-10T12:27:10.170Z,97966.09
2022-09-10T12:29:42.568Z,97955.28
2022-09-10T12:32:32.448Z,97956.94
2022-09-10T12:35:45.848Z,97956.31
2022-09-10T12:38:49.372Z,97955.28
2022-09-10T12:42:00.414Z,97956.03
2022-09-10T12:44:51.558Z,97955.34
2022-09-10T12:47:55.717Z,97931.69
2022-09-10T12:50:40.357Z,97950.28
2022-09-10T12:54:04.521Z,97936.78
2022-09-10T12:57:01.002Z,97943.69
2022-09-10T13:00:14.820Z,97946.53
2022-09-10T13:02:54.612Z,97941.88
2022-09-10T13:05:34.261Z,97941.50
2022-09-10T13:08:21.437Z,97937.25
2022-09-10T13:11:17.473Z,97942.56
2022-09-10T13:13:59.569Z,97947.00
2022-09-10T13:16:43.735Z,97941.56
2022-09-10T13:19:50.717Z,97941.03
2022-09-10T13:23:06.048Z,97940.75
2022-09-10T13:25:43.213Z,97936.22
2022-09-10T13:29:11.341Z,97933.75
2022-09-10T13:31:49.501Z,97942.38
2022-09-10T13:34:59.267Z,97947.25
2022-09-10T13:37:54.358Z,97942.56
2022-09-10T13:41:04.176Z,97940.75
2022-09-10T13:43:59.504Z,97950.31
2022-09-10T13:46:40.015Z,97944.91
2022-09-10T13:49:19.413Z,97944.91
2022-09-10T13:51:56.036Z,97935.59
2022-09-10T13:54:35.376Z,97938.69
2022-09-10T13:57:16.290Z,97942.84
2022-09-10T13:59:52.012Z,97935.25
2022-09-10T14:02:22.103Z,97935.34
2022-09-10T14:04:55.539Z,97937.88
2022-09-10T14:07:32.935Z,97938.22
2022-09-10T14:10:08.558Z,97941.94
2022-09-10T14:12:39.128Z,97945.91
2022-09-10T14:15:17.722Z,97939.75
2022-09-10T14:17:53.415Z,97945.41
2022-09-10T14:20:31.142Z,97939.22
2022-09-10T14:23:05.393Z,97950.31
2022-09-10T14:25:38.800Z,97945.91
2022-09-10T14:28:30.573Z,97946.56
2022-09-10T14:31:23.785Z,97950.63
2022-09-10T14:33:54.063Z,97957.28
2022-09-10T14:36:36.659Z,97946.44
2022-09-10T14:39:16.870Z,97946.22
2022-09-10T14:41:47.587Z,97949.69
2022-09-10T14:44:31.274Z,97943.78
2022-09-10T14:47:03.684Z,97945.06
2022-09-10T14:49:37.816Z,97934.75
2022-09-10T14:52:13.239Z,97933.69
2022-09-10T14:54:43.304Z,97941.47
2022-09-10T14:57:18.608Z,97943.56
2022-09-10T14:59:50.768Z,97941.19
2022-09-10T15:02:27.162Z,97938.34
2022-09-10T15:04:58.128Z,97940.97
2022-09-10T15:07:31.376Z,97933.50
2022-09-10T15:10:01.708Z,97930.91
2022-09-10T15:12:35.147Z,97925.44
2022-09-10T15:15:05.822Z,97920.91
2022-09-10T15:17:37.675Z,97930.56
2022-09-10T15:20:09.244Z,97934.34
2022-09-10T15:22:41.889Z,97934.56
2022-09-10T15:25:38.060Z,97940.38
2022-09-10T15:28:09.773Z,97941.84
2022-09-10T15:30:39.774Z,97939.06
2022-09-10T15:33:10.796Z,97935.22
2022-09-10T15:35:41.933Z,97938.91
2022-09-10T15:38:15.936Z,97936.56
2022-09-10T15:40:47.382Z,97945.69
2022-09-10T15:43:19.316Z,97941.06
2022-09-10T15:45:50.246Z,97945.44
2022-09-10T15:48:20.181Z,97943.53
2022-09-10T15:50:50.141Z,97933.38
2022-09-10T15:53:23.068Z,97950.63
2022-09-10T15:55:53.355Z,97947.56
2022-09-10T15:58:23.988Z,97952.31
2022-09-10T16:00:53.873Z,97962.22
2022-09-10T16:03:25.368Z,97970.31
2022-09-10T16:05:55.387Z,97996.00
2022-09-10T16:08:27.912Z,97997.94
2022-09-10T16:10:58.752Z,97994.13
2022-09-10T16:13:29.481Z,97985.34
2022-09-10T16:16:04.670Z,97980.81
2022-09-10T16:18:35.823Z,97981.38
2022-09-10T16:21:15.774Z,97973.13
2022-09-10T16:23:49.990Z,97981.50
2022-09-10T16:26:23.891Z,97983.06
2022-09-10T16:28:54.702Z,97987.00
2022-09-10T16:31:27.917Z,97993.44
2022-09-10T16:34:00.613Z,97991.75
2022-09-10T16:36:31.279Z,97994.53
2022-09-10T16:39:05.198Z,97992.94
2022-09-10T16:41:35.674Z,97999.97
2022-09-10T16:44:06.165Z,98000.06
2022-09-10T16:46:36.398Z,97993.97
2022-09-10T16:49:06.544Z,97997.44
2022-09-10T16:51:39.295Z,97988.81
2022-09-10T16:54:13.949Z,97996.97
2022-09-10T16:56:46.136Z,97997.75
2022-09-10T16:59:19.601Z,97998.97
2022-09-10T17:01:51.918Z,98001.34
2022-09-10T17:04:29.318Z,98004.56
2022-09-10T17:07:00.355Z,98002.22
2022-09-10T17:09:32.990Z,98000.34
2022-09-10T17:12:03.572Z,98001.47
2022-09-10T17:14:33.649Z,98002.56
2022-09-10T17:17:03.556Z,98008.34
2022-09-10T17:19:33.555Z,98002.22
2022-09-10T17:22:03.624Z,98007.81
2022-09-10T17:24:36.300Z,98015.19
2022-09-10T17:27:06.945Z,98011.16
2022-09-10T17:29:38.653Z,98011.06
2022-09-10T17:32:08.693Z,98020.91
2022-09-10T17:34:38.633Z,98026.81
2022-09-10T17:37:08.578Z,98028.38
2022-09-10T17:39:41.163Z,98034.41
2022-09-10T17:42:11.243Z,98038.53
2022-09-10T17:44:41.231Z,98039.88
2022-09-10T17:47:12.020Z,98036.53
2022-09-10T17:49:43.235Z,98039.22
2022-09-10T17:52:14.634Z,98039.53
2022-09-10T17:54:47.161Z,98047.81
2022-09-10T17:57:17.672Z,98051.81
2022-09-10T17:59:47.619Z,98049.81
2022-09-10T18:02:19.355Z,98050.44
2022-09-10T18:04:52.690Z,98049.31
2022-09-10T18:07:22.714Z,98051.44
2022-09-10T18:09:55.249Z,98060.56
2022-09-10T18:12:25.192Z,98057.13
2022-09-10T18:14:55.182Z,98057.25
2022-09-10T18:17:25.130Z,98060.19
2022-09-10T18:19:55.144Z,98059.38
2022-09-10T18:22:27.469Z,98058.53
2022-09-10T18:25:00.048Z,98064.00
2022-09-10T18:27:30.265Z,98065.22
2022-09-10T18:30:00.444Z,98072.28
2022-09-10T18:32:30.426Z,98063.75
2022-09-10T18:35:00.416Z,98065.34
2022-09-10T18:37:30.410Z,98069.34
2022-09-10T18:40:06.142Z,98069.34
2022-09-10T18:42:36.157Z,98071.13
2022-09-10T18:45:06.939Z,98071.47
2022-09-10T18:47:44.654Z,98081.28
2022-09-10T18:50:15.633Z,98087.88
2022-09-10T18:52:45.591Z,98097.47
2022-09-10T18:55:18.465Z,98105.09
2022-09-10T18:57:48.424Z,98096.91
2022-09-10T19:00:19.025Z,98097.03
2022-09-10T19:02:49.412Z,98094.81
2022-09-10T19:05:19.642Z,98091.56
2022-09-10T19:07:51.808Z,98095.16
2022-09-10T19:10:24.319Z,98097.94
2022-09-10T19:12:54.617Z,98103.16
2022-09-10T19:15:24.571Z,98101.50
2022-09-10T19:17:54.661Z,98102.72
2022-09-10T19:20:26.450Z,98095.69
2022-09-10T19:22:56.463Z,98087.28
2022-09-10T19:25:29.072Z,98084.84
2022-09-10T19:28:00.022Z,98091.41
2022-09-10T19:30:35.161Z,98089.41
2022-09-10T19:33:05.776Z,98095.31
2022-09-10T19:35:38.962Z,98097.22
2022-09-10T19:38:27.502Z,98098.13
2022-09-10T19:41:09.547Z,98108.41
2022-09-10T19:43:40.188Z,98105.50
2022-09-10T19:46:12.898Z,98100.13
2022-09-10T19:48:43.714Z,98094.84
2022-09-10T19:51:16.159Z,98099.91
2022-09-10T19:53:46.658Z,98091.66
2022-09-10T19:56:21.850Z,98097.00
2022-09-10T19:58:55.634Z,98095.09
2022-09-10T20:01:31.444Z,98099.09
2022-09-10T20:04:05.023Z,98091.50
2022-09-10T20:06:36.546Z,98096.66
2022-09-10T20:09:10.020Z,98099.66
2022-09-10T20:11:42.628Z,98097.38
2022-09-10T20:14:16.109Z,98103.53
2022-09-10T20:16:48.679Z,98101.16
2022-09-10T20:19:22.966Z,98097.25
2022-09-10T20:21:53.210Z,98099.75
2022-09-10T20:24:23.926Z,98097.94
2022-09-10T20:26:57.096Z,98101.28
2022-09-10T20:29:29.013Z,98095.84
2022-09-10T20:31:58.940Z,98100.25
2022-09-10T20:34:28.936Z,98102.97
2022-09-10T20:36:59.873Z,98103.16
2022-09-10T20:39:31.709Z,98101.91
2022-09-10T20:42:04.754Z,98095.00
2022-09-10T20:44:34.729Z,98101.69
2022-09-10T20:47:05.570Z,98108.38
2022-09-10T20:49:35.502Z,98102.53
2022-09-10T20:52:06.929Z,98105.25
2022-09-10T20:54:36.918Z,98101.13
2022-09-10T20:57:09.688Z,98104.56
2022-09-10T20:59:39.939Z,98112.38
2022-09-10T21:02:10.829Z,98107.25
2022-09-10T21:04:42.040Z,98107.00
2022-09-10T21:07:12.244Z,98114.03
2022-09-10T21:09:42.273Z,98115.91
2022-09-10T21:12:16.005Z,98115.31
2022-09-10T21:14:45.921Z,98114.13
2022-09-10T21:17:16.266Z,98117.44
2022-09-10T21:19:46.232Z,98115.13
2022-09-10T21:22:16.409Z,98115.91
2022-09-10T21:24:46.350Z,98114.53
2022-09-10T21:27:18.945Z,98114.13
2022-09-10T21:29:48.926Z,98110.63
2022-09-10T21:32:18.869Z,98106.66
2022-09-10T21:34:48.834Z,98100.59
2022-09-10T21:37:19.092Z,98105.84
2022-09-10T21:39:49.468Z,98109.75
2022-09-10T21:42:22.069Z,98112.13
2022-09-10T21:44:52.002Z,98113.69
2022-09-10T21:47:22.166Z,98117.81
2022-09-10T21:49:52.114Z,98120.81
2022-09-10T21:52:22.065Z,98114.19
2022-09-10T21:54:52.059Z,98119.69
2022-09-10T21:57:24.668Z,98132.78
2022-09-10T21:59:54.672Z,98125.09
2022-09-10T22:02:24.706Z,98127.84
2022-09-10T22:04:54.809Z,98135.63
2022-09-10T22:07:24.987Z,98134.91
2022-09-10T22:09:54.982Z,98129.91
2022-09-10T22:12:28.409Z,98128.91
2022-09-10T22:14:58.935Z,98130.47
2022-09-10T22:17:29.062Z,98122.91
2022-09-10T22:19:59.018Z,98123.84
2022-09-10T22:22:28.965Z,98136.59
2022-09-10T22:24:58.880Z,98129.94
2022-09-10T22:27:31.473Z,98130.59
2022-09-10T22:30:04.508Z,98129.59
2022-09-10T22:32:36.630Z,98135.16
2022-09-10T22:35:07.152Z,98137.88
2022-09-10T22:37:37.214Z,98133.53
2022-09-10T22:40:08.465Z,98138.75
2022-09-10T22:42:41.050Z,98143.09
2022-09-10T22:45:12.939Z,98146.53
2022-09-10T22:47:43.072Z,98140.63
2022-09-10T22:50:13.270Z,98146.19
2022-09-10T22:52:43.750Z,98142.25
2022-09-10T22:55:13.911Z,98145.81
2022-09-10T22:57:46.499Z,98139.59
2022-09-10T23:00:17.639Z,98146.53
2022-09-10T23:02:47.860Z,98146.19
2022-09-10T23:05:18.061Z,98147.63
2022-09-10T23:07:48.002Z,98148.75
2022-09-10T23:10:18.251Z,98141.75
2022-09-10T23:12:50.792Z,98152.34
2022-09-10T23:15:20.780Z,98150.09
2022-09-10T23:17:51.159Z,98149.28
2022-09-10T23:20:21.106Z,98149.28
2022-09-10T23:22:51.333Z,98151.66
2022-09-10T23:25:21.667Z,98149.75
2022-09-10T23:27:54.430Z,98159.56
2022-09-10T23:30:24.522Z,98157.19
2022-09-10T23:32:54.490Z,98155.56
2022-09-10T23:35:24.463Z,98152.41
2022-09-10T23:37:55.100Z,98159.91
2022-09-10T23:40:29.892Z,98154.56
2022-09-10T23:43:04.833Z,98149.50
2022-09-10T23:45:35.267Z,98154.41
2022-09-10T23:48:05.806Z,98153.59
2022-09-10T23:50:35.920Z,98152.78
2022-09-10T23:53:06.020Z,98144.91
2022-09-10T23:55:37.126Z,98151.97
2022-09-10T23:58:09.662Z,98152.31
